Time;durP1;ratioP1;P1;durP2;ratioP2;P2;SDS_P1;SDS_P2;PMS_P1;PMS_P2;Temp;Humidity;BMP_temperature;BMP_pressure;BME280_temperature;BME280_humidity;BME280_pressure;Samples;Min_cycle;Max_cycle;Signal;HPM_P1;HPM_P2
2021/03/03 00:01:24;;;;;;;17.67;11.52;;;;;;;6.00;45.41;96482.25;5111404;28;20672;-67
2021/03/03 00:03:51;;;;;;;20.38;11.90;;;;;;;6.17;45.45;96478.34;5112437;28;20190;-64
2021/03/03 00:06:17;;;;;;;17.85;12.13;;;;;;;6.44;44.78;96477.53;5111523;28;20610;-64
2021/03/03 00:08:44;;;;;;;20.23;11.70;;;;;;;6.26;45.11;96486.84;5111690;28;20198;-64
2021/03/03 00:11:10;;;;;;;20.92;13.20;;;;;;;6.03;45.61;96482.69;5101516;28;20194;-63
2021/03/03 00:13:36;;;;;;;27.08;16.40;;;;;;;6.41;45.89;96477.94;5090724;28;20219;-65
2021/03/03 00:16:03;;;;;;;21.85;13.50;;;;;;;6.52;45.31;96480.00;5110323;28;20198;-67
2021/03/03 00:18:30;;;;;;;19.05;12.40;;;;;;;6.49;44.98;96471.78;5111586;28;20202;-64
2021/03/03 00:20:56;;;;;;;21.75;11.60;;;;;;;6.34;44.96;96464.06;5111986;28;20199;-65
2021/03/03 00:23:23;;;;;;;17.55;11.95;;;;;;;6.23;45.48;96464.59;5111653;28;20239;-66
2021/03/03 00:25:50;;;;;;;21.05;13.13;;;;;;;6.43;45.01;96475.13;5131485;27;20201;-68
2021/03/03 00:28:16;;;;;;;17.30;11.65;;;;;;;6.28;45.24;96477.06;5114275;27;20201;-67
2021/03/03 00:30:42;;;;;;;19.52;11.80;;;;;;;5.97;45.29;96438.38;5110426;28;20755;-68
2021/03/03 00:33:10;;;;;;;18.75;12.13;;;;;;;6.37;45.36;96479.28;5090646;28;20211;-64
2021/03/03 00:35:37;;;;;;;17.83;11.35;;;;;;;6.44;44.72;96469.72;5092702;28;20712;-70
2021/03/03 00:38:03;;;;;;;18.42;11.60;;;;;;;6.49;44.94;96483.00;5096924;28;20187;-64
2021/03/03 00:40:30;;;;;;;19.08;11.95;;;;;;;6.49;44.37;96477.78;5110010;28;20201;-64
2021/03/03 00:42:57;;;;;;;19.20;11.57;;;;;;;6.09;45.36;96465.50;5110899;28;20194;-67
2021/03/03 00:45:23;;;;;;;19.13;12.40;;;;;;;6.21;45.38;96461.38;5110283;28;20202;-66
2021/03/03 00:47:50;;;;;;;20.15;12.15;;;;;;;6.27;45.59;96462.41;5110700;28;20206;-68
2021/03/03 00:50:17;;;;;;;22.48;12.38;;;;;;;6.16;45.28;96458.53;5108941;28;20199;-66
2021/03/03 00:52:50;;;;;;;23.08;12.25;;;;;;;6.30;45.27;96462.84;5109556;28;20212;-66
2021/03/03 00:55:17;;;;;;;24.75;12.82;;;;;;;6.34;45.10;96443.25;5106129;28;20234;-69
2021/03/03 00:57:45;;;;;;;24.05;12.90;;;;;;;6.33;45.02;96467.69;5090480;28;20198;-64
2021/03/03 01:00:33;;;;;;;19.58;12.63;;;;;;;6.32;45.45;96470.44;5105024;28;20198;-65
2021/03/03 01:03:02;;;;;;;21.58;13.45;;;;;;;6.60;45.02;96479.88;5096715;28;20639;-69
2021/03/03 01:05:28;;;;;;;23.08;12.60;;;;;;;6.49;44.87;96472.59;5091473;28;20235;-67
2021/03/03 01:07:54;;;;;;;19.27;12.73;;;;;;;6.65;44.63;96468.84;5089995;28;20190;-65
2021/03/03 01:10:21;;;;;;;22.23;12.30;;;;;;;6.66;44.77;96473.09;5088305;28;20192;-68
2021/03/03 01:12:52;;;;;;;18.95;11.48;;;;;;;6.56;44.80;96473.41;5088915;28;20264;-67
2021/03/03 01:15:18;;;;;;;20.88;12.95;;;;;;;6.51;44.98;96465.38;5089728;28;20203;-67
2021/03/03 01:17:46;;;;;;;19.83;11.30;;;;;;;6.66;45.01;96479.06;5088815;28;20306;-67
2021/03/03 01:20:13;;;;;;;18.55;11.90;;;;;;;6.27;45.66;96476.25;5104803;28;20267;-63
2021/03/03 01:22:39;;;;;;;19.20;12.13;;;;;;;6.40;45.52;96481.53;5110511;28;20175;-67
2021/03/03 01:25:07;;;;;;;21.42;11.15;;;;;;;6.38;45.34;96469.69;5108259;28;20234;-68
2021/03/03 01:27:33;;;;;;;20.00;11.75;;;;;;;6.29;45.97;96476.88;5110103;28;20301;-68
2021/03/03 01:29:59;;;;;;;19.23;11.95;;;;;;;6.49;45.71;96477.78;5107272;28;20187;-65
2021/03/03 01:32:25;;;;;;;18.77;11.10;;;;;;;6.44;46.02;96482.75;5094946;28;20203;-66
2021/03/03 01:34:52;;;;;;;18.67;11.50;;;;;;;6.39;46.08;96477.31;5108004;28;20322;-68
2021/03/03 01:37:18;;;;;;;18.58;11.40;;;;;;;6.22;46.59;96476.00;5109824;28;20194;-68
2021/03/03 01:39:45;;;;;;;18.33;11.55;;;;;;;6.06;47.34;96486.69;5109573;28;20631;-69
2021/03/03 01:42:11;;;;;;;17.17;10.82;;;;;;;6.31;46.71;96480.09;5105439;28;20718;-65
2021/03/03 01:44:37;;;;;;;27.30;16.92;;;;;;;6.14;47.33;96483.94;5089196;28;20191;-72
2021/03/03 01:47:04;;;;;;;31.75;19.83;;;;;;;5.99;47.10;96481.44;5090724;28;20209;-70
2021/03/03 01:49:30;;;;;;;36.30;21.17;;;;;;;5.72;47.66;96491.75;5093346;28;20199;-65
2021/03/03 01:51:57;;;;;;;34.50;20.88;;;;;;;5.48;47.75;96498.13;5093831;28;20195;-66
2021/03/03 01:54:23;;;;;;;39.58;21.65;;;;;;;5.35;48.20;96486.78;5112644;28;20943;-68
2021/03/03 01:56:50;;;;;;;36.33;21.42;;;;;;;5.27;48.26;96490.31;5114156;28;20205;-65
2021/03/03 01:59:16;;;;;;;38.78;22.88;;;;;;;5.09;48.78;96501.09;5113596;28;20202;-69
2021/03/03 02:01:42;;;;;;;39.92;24.30;;;;;;;5.06;49.04;96498.88;5113842;28;20213;-65
2021/03/03 02:04:09;;;;;;;40.38;24.52;;;;;;;5.01;49.26;96490.84;5113293;28;20195;-67
2021/03/03 02:06:52;;;;;;;42.38;24.05;;;;;;;4.89;49.05;96471.50;5114867;28;20198;-65
2021/03/03 02:09:46;;;;;;;39.10;22.95;;;;;;;4.78;49.56;96484.94;5113843;28;20204;-68
2021/03/03 02:12:18;;;;;;;36.85;22.33;;;;;;;4.86;49.41;96492.63;5114159;28;20198;-66
2021/03/03 02:14:51;;;;;;;39.17;22.55;;;;;;;4.74;49.37;96499.28;5112584;28;20226;-67
2021/03/03 02:17:19;;;;;;;39.17;23.38;;;;;;;4.58;49.51;96498.66;5108576;28;20205;-71
2021/03/03 02:19:47;;;;;;;40.92;24.63;;;;;;;4.31;50.73;96507.03;5114056;28;20916;-65
2021/03/03 02:22:21;;;;;;;37.35;23.83;;;;;;;4.41;50.78;96505.81;5114785;28;20187;-66
2021/03/03 02:24:53;;;;;;;40.95;24.00;;;;;;;4.30;51.36;96516.63;5113735;28;20182;-64
2021/03/03 02:27:22;;;;;;;37.10;22.35;;;;;;;4.14;51.22;96496.81;5114097;28;20205;-68
2021/03/03 02:29:50;;;;;;;36.97;22.98;;;;;;;4.23;51.17;96520.91;5096592;28;20618;-68
2021/03/03 02:32:18;;;;;;;39.38;23.33;;;;;;;4.35;50.93;96518.69;5093259;28;20190;-67
2021/03/03 02:34:45;;;;;;;36.90;23.08;;;;;;;4.32;50.96;96519.84;5094429;28;20229;-65
2021/03/03 02:37:14;;;;;;;43.40;23.30;;;;;;;4.25;51.31;96528.50;5093734;28;20661;-68
2021/03/03 02:39:41;;;;;;;37.15;22.85;;;;;;;4.13;51.70;96528.13;5092620;28;20593;-66
2021/03/03 02:42:08;;;;;;;35.63;22.38;;;;;;;4.14;51.60;96527.16;5091876;28;20312;-63
2021/03/03 02:44:37;;;;;;;35.97;22.50;;;;;;;3.79;52.07;96538.13;5092407;28;20684;-64
2021/03/03 02:47:03;;;;;;;37.17;22.33;;;;;;;3.07;54.20;96537.59;5093211;28;20195;-64
2021/03/03 02:49:31;;;;;;;36.30;21.38;;;;;;;3.22;54.58;96534.28;5092228;28;20203;-65
2021/03/03 02:51:58;;;;;;;32.47;20.92;;;;;;;3.69;52.96;96532.34;5092821;28;20207;-68
2021/03/03 02:54:24;;;;;;;35.90;22.50;;;;;;;3.92;52.52;96533.97;5092433;28;20295;-66
2021/03/03 02:56:52;;;;;;;34.10;20.90;;;;;;;3.94;52.18;96526.81;5092608;28;20202;-66
2021/03/03 02:59:36;;;;;;;35.85;21.75;;;;;;;3.55;52.80;96530.53;5092197;28;20183;-65
2021/03/03 03:02:05;;;;;;;34.63;20.98;;;;;;;3.88;52.11;96537.09;5092886;28;20187;-64
2021/03/03 03:04:36;;;;;;;32.63;21.20;;;;;;;3.81;52.49;96538.78;5091916;28;20248;-65
2021/03/03 03:07:08;;;;;;;31.65;20.42;;;;;;;3.98;52.43;96535.88;5091962;28;20215;-67
2021/03/03 03:09:38;;;;;;;34.97;21.67;;;;;;;3.72;52.49;96516.47;5091846;28;20192;-66
2021/03/03 03:12:07;;;;;;;34.38;21.02;;;;;;;3.88;52.48;96531.91;5092476;28;20214;-68
2021/03/03 03:14:34;;;;;;;40.60;20.45;;;;;;;3.82;52.97;96527.41;5091703;28;20292;-70
2021/03/03 03:17:01;;;;;;;33.03;20.02;;;;;;;3.75;52.81;96536.84;5092268;28;20188;-64
2021/03/03 03:19:49;;;;;;;35.25;21.58;;;;;;;2.94;55.62;96537.31;5091848;28;20209;-68
2021/03/03 03:22:18;;;;;;;36.47;20.13;;;;;;;3.32;54.15;96542.66;5092346;28;20195;-67
2021/03/03 03:24:46;;;;;;;33.25;19.95;;;;;;;3.44;53.92;96549.06;5091761;28;20180;-65
2021/03/03 03:27:13;;;;;;;37.10;20.63;;;;;;;3.56;53.30;96548.47;5092322;28;20252;-67
2021/03/03 03:29:40;;;;;;;37.58;20.52;;;;;;;3.53;53.60;96553.19;5091534;28;20199;-65
2021/03/03 03:32:24;;;;;;;33.55;20.92;;;;;;;3.44;53.66;96543.88;5092024;28;20227;-66
2021/03/03 03:34:51;;;;;;;31.80;20.08;;;;;;;3.08;54.53;96544.38;5091814;28;20230;-62
2021/03/03 03:37:19;;;;;;;36.28;21.40;;;;;;;3.17;54.79;96546.94;5092908;28;20584;-70
2021/03/03 03:39:45;;;;;;;32.83;20.15;;;;;;;2.84;55.67;96548.84;5091975;28;20540;-65
2021/03/03 03:42:15;;;;;;;32.05;19.38;;;;;;;3.27;54.32;96542.34;5091726;28;20194;-64
2021/03/03 03:44:43;;;;;;;34.85;19.65;;;;;;;3.34;54.75;96554.44;5091313;28;20225;-69
2021/03/03 03:47:14;;;;;;;32.50;19.73;;;;;;;3.39;54.44;96551.34;5091550;28;20660;-66
2021/03/03 03:49:45;;;;;;;34.33;19.98;;;;;;;3.36;54.58;96554.28;5091104;28;20207;-65
2021/03/03 03:52:19;;;;;;;34.40;19.73;;;;;;;3.53;53.73;96550.63;5091580;28;20680;-67
2021/03/03 03:54:52;;;;;;;30.80;19.08;;;;;;;3.63;53.13;96533.84;5090754;28;20253;-67
2021/03/03 03:57:20;;;;;;;31.65;18.75;;;;;;;3.71;53.09;96546.78;5091226;28;20256;-66
2021/03/03 03:59:47;;;;;;;31.63;19.23;;;;;;;3.35;53.62;96534.53;5090955;28;20219;-68
2021/03/03 04:02:14;;;;;;;35.58;20.33;;;;;;;3.46;53.72;96542.72;5091375;28;20731;-65
2021/03/03 04:04:40;;;;;;;30.65;19.02;;;;;;;3.08;54.98;96544.38;5090532;28;20230;-67
2021/03/03 04:07:07;;;;;;;32.60;19.92;;;;;;;2.99;54.74;96555.72;5093561;28;20194;-68
2021/03/03 04:09:33;;;;;;;33.05;19.05;;;;;;;3.03;55.22;96554.44;5106724;28;20678;-67
2021/03/03 04:12:00;;;;;;;35.58;20.65;;;;;;;2.97;55.02;96556.91;5110568;28;20209;-68
2021/03/03 04:14:27;;;;;;;32.72;19.73;;;;;;;2.79;55.43;96549.34;5110758;28;20963;-68
2021/03/03 04:16:54;;;;;;;33.42;19.08;;;;;;;3.05;54.84;96542.13;5111616;28;20611;-69
2021/03/03 04:19:20;;;;;;;36.17;20.25;;;;;;;3.17;54.53;96558.09;5111214;28;20778;-68
2021/03/03 04:21:47;;;;;;;33.45;19.90;;;;;;;3.06;54.77;96556.69;5111152;28;20208;-66
2021/03/03 04:24:13;;;;;;;32.88;19.35;;;;;;;3.03;54.47;96562.19;5110595;28;20195;-69
2021/03/03 04:26:40;;;;;;;33.60;20.55;;;;;;;3.13;54.84;96561.19;5111230;28;20183;-67
2021/03/03 04:29:06;;;;;;;34.50;20.52;;;;;;;2.88;54.75;96558.69;5110180;28;20195;-65
2021/03/03 04:31:32;;;;;;;36.72;21.42;;;;;;;3.16;54.60;96573.81;5090600;28;20202;-67
2021/03/03 04:33:59;;;;;;;33.65;20.08;;;;;;;2.94;55.31;96583.91;5090507;28;20313;-68
2021/03/03 04:36:25;;;;;;;33.10;20.23;;;;;;;2.82;55.52;96568.91;5090110;28;20195;-70
2021/03/03 04:38:52;;;;;;;35.03;19.95;;;;;;;2.94;54.97;96570.16;5090990;28;20260;-66
2021/03/03 04:41:18;;;;;;;36.03;19.98;;;;;;;2.78;55.44;96562.44;5090112;28;20206;-67
2021/03/03 04:43:44;;;;;;;38.63;20.23;;;;;;;3.09;54.95;96560.72;5090953;28;20680;-70
2021/03/03 04:46:11;;;;;;;36.70;21.05;;;;;;;2.96;55.33;96565.63;5090232;28;20286;-70
2021/03/03 04:48:37;;;;;;;38.38;21.92;;;;;;;3.04;54.96;96574.19;5093231;28;20191;-70
2021/03/03 04:51:04;;;;;;;38.72;21.02;;;;;;;3.02;54.89;96581.31;5089815;28;20198;-68
2021/03/03 04:53:30;;;;;;;42.20;22.80;;;;;;;2.95;54.88;96572.59;5103396;28;20275;-67
2021/03/03 04:55:56;;;;;;;37.85;21.98;;;;;;;3.07;54.90;96566.06;5110567;28;20250;-69
2021/03/03 04:58:23;;;;;;;40.40;21.92;;;;;;;3.01;55.31;96584.88;5102896;28;20202;-70
2021/03/03 05:00:50;;;;;;;44.67;24.50;;;;;;;2.85;55.12;96574.56;5105287;28;20209;-69
2021/03/03 05:03:34;;;;;;;47.50;25.10;;;;;;;2.74;55.71;96572.34;5090034;28;20438;-66
2021/03/03 05:06:05;;;;;;;45.65;23.95;;;;;;;2.76;55.67;96575.56;5089344;28;20231;-64
2021/03/03 05:08:32;;;;;;;46.78;23.35;;;;;;;2.80;55.66;96582.03;5089771;28;20209;-67
2021/03/03 05:10:58;;;;;;;42.45;23.40;;;;;;;2.91;55.30;96589.44;5097699;28;20301;-65
2021/03/03 05:13:25;;;;;;;45.83;21.92;;;;;;;2.81;55.59;96583.63;5104106;28;20245;-69
2021/03/03 05:15:51;;;;;;;43.78;22.92;;;;;;;2.89;55.01;96583.63;5089224;28;20691;-66
2021/03/03 05:18:18;;;;;;;43.85;22.42;;;;;;;2.74;55.84;96590.44;5099920;28;20194;-68
2021/03/03 05:20:44;;;;;;;41.40;22.60;;;;;;;2.90;55.26;96582.63;5110109;28;20202;-69
2021/03/03 05:23:12;;;;;;;44.35;23.48;;;;;;;2.90;55.46;96581.84;5107234;28;20259;-67
2021/03/03 05:25:38;;;;;;;48.90;22.63;;;;;;;2.74;55.79;96587.03;5089221;28;20190;-66
2021/03/03 05:28:05;;;;;;;40.28;21.55;;;;;;;3.00;55.31;96587.63;5093827;28;20221;-68
2021/03/03 05:30:31;;;;;;;41.50;21.08;;;;;;;2.93;55.49;96582.31;5111256;28;20195;-67
2021/03/03 05:32:58;;;;;;;37.72;21.48;;;;;;;3.04;54.96;96584.56;5095597;28;20210;-63
2021/03/03 05:35:24;;;;;;;42.05;21.83;;;;;;;2.81;56.21;96588.03;5089935;28;20231;-65
2021/03/03 05:37:50;;;;;;;42.17;21.25;;;;;;;2.58;56.84;96585.31;5089883;28;20199;-67
2021/03/03 05:40:17;;;;;;;45.33;23.67;;;;;;;2.32;57.40;96589.88;5099331;28;20703;-71
2021/03/03 05:42:43;;;;;;;43.03;23.45;;;;;;;2.47;57.57;96590.84;5109711;28;20709;-68
2021/03/03 05:45:10;;;;;;;40.30;22.45;;;;;;;2.86;56.72;96583.97;5109756;28;20201;-65
2021/03/03 05:47:37;;;;;;;44.15;22.25;;;;;;;2.77;56.45;96577.16;5110555;28;20201;-66
2021/03/03 05:50:06;;;;;;;43.88;24.42;;;;;;;2.92;56.31;96587.63;5109841;28;20185;-63
2021/03/03 05:52:33;;;;;;;55.10;29.48;;;;;;;3.14;55.62;96581.72;5109682;28;20190;-65
2021/03/03 05:55:02;;;;;;;82.95;43.90;;;;;;;3.30;55.10;96583.47;5103480;28;20230;-68
2021/03/03 05:57:31;;;;;;;80.72;45.15;;;;;;;3.22;56.11;96583.50;5090047;28;20554;-66
2021/03/03 05:59:59;;;;;;;79.63;46.33;;;;;;;3.19;55.50;96574.28;5087558;28;20206;-65
2021/03/03 06:02:26;;;;;;;82.63;47.00;;;;;;;3.22;55.74;96571.34;5089575;28;20186;-68
2021/03/03 06:04:52;;;;;;;63.90;36.97;;;;;;;2.67;57.17;96581.75;5088089;28;20708;-67
2021/03/03 06:07:21;;;;;;;62.20;36.90;;;;;;;3.30;55.67;96588.66;5107410;28;20194;-68
2021/03/03 06:09:47;;;;;;;67.65;40.50;;;;;;;3.54;55.08;96589.31;5091378;28;20676;-67
2021/03/03 06:12:14;;;;;;;70.40;39.53;;;;;;;3.80;54.32;96591.59;5102557;28;20194;-66
2021/03/03 06:14:40;;;;;;;67.97;38.53;;;;;;;3.86;54.91;96590.91;5109276;28;20340;-67
2021/03/03 06:17:07;;;;;;;61.45;37.65;;;;;;;3.27;56.53;96584.59;5089840;28;20203;-66
2021/03/03 06:19:34;;;;;;;67.53;40.28;;;;;;;3.22;57.06;96593.84;5089503;28;20191;-66
2021/03/03 06:22:26;;;;;;;66.68;40.17;;;;;;;3.21;57.23;96600.03;5089487;28;20188;-68
2021/03/03 06:24:54;;;;;;;59.78;36.10;;;;;;;3.33;57.14;96596.88;5088721;28;20199;-67
2021/03/03 06:27:22;;;;;;;63.83;36.47;;;;;;;3.54;56.63;96596.31;5089397;28;20266;-65
2021/03/03 06:30:07;;;;;;;54.22;31.75;;;;;;;4.04;55.14;96602.63;5094682;28;20194;-65
2021/03/03 06:32:54;;;;;;;45.17;28.65;;;;;;;3.72;56.09;96599.44;5109657;28;20525;-65
2021/03/03 06:35:34;;;;;;;53.55;30.15;;;;;;;3.55;57.07;96593.53;5112962;28;20305;-67
2021/03/03 06:38:01;;;;;;;54.42;30.55;;;;;;;3.31;58.09;96590.25;5114503;28;20206;-67
2021/03/03 06:40:27;;;;;;;58.47;33.15;;;;;;;3.31;58.42;96603.19;5113820;28;20286;-66
2021/03/03 06:42:55;;;;;;;59.30;33.97;;;;;;;3.92;57.31;96605.78;5116601;28;20213;-69
2021/03/03 06:45:28;;;;;;;62.10;34.47;;;;;;;4.04;61.34;96604.41;5113130;28;20306;-68
2021/03/03 06:47:55;;;;;;;58.00;34.33;;;;;;;4.46;56.60;96599.50;5113382;27;20198;-67
2021/03/03 06:50:32;;;;;;;59.75;35.53;;;;;;;4.30;57.67;96597.06;5112887;28;20187;-67
2021/03/03 06:52:58;;;;;;;56.05;34.42;;;;;;;4.74;56.58;96591.97;5112708;28;20245;-70
2021/03/03 06:55:24;;;;;;;57.20;32.80;;;;;;;4.19;56.61;96597.47;5112328;28;20236;-69
2021/03/03 06:57:51;;;;;;;56.83;31.20;;;;;;;4.19;57.25;96601.84;5113412;28;20209;-67
2021/03/03 07:00:41;;;;;;;52.80;30.27;;;;;;;4.62;55.78;96599.38;5112623;28;20210;-65
2021/03/03 07:03:26;;;;;;;47.03;27.70;;;;;;;4.83;55.44;96596.09;5101592;28;20211;-65
2021/03/03 07:05:53;;;;;;;41.35;26.00;;;;;;;5.14;54.68;96600.13;5104686;28;20272;-67
2021/03/03 07:08:21;;;;;;;42.85;26.77;;;;;;;5.36;54.36;96593.19;5098842;28;20210;-69
2021/03/03 07:10:48;;;;;;;45.97;27.08;;;;;;;5.57;53.69;96584.63;5091900;28;20676;-67
2021/03/03 07:13:14;;;;;;;53.38;29.77;;;;;;;5.47;53.97;96589.31;5092718;28;20270;-71
2021/03/03 07:15:41;;;;;;;49.60;28.63;;;;;;;5.30;54.17;96575.72;5091846;28;20196;-68
2021/03/03 07:18:30;;;;;;;53.55;30.05;;;;;;;5.45;55.11;96580.91;5106314;28;20277;-67
2021/03/03 07:20:57;;;;;;;58.92;32.90;;;;;;;5.42;54.93;96586.47;5111530;28;20202;-67
2021/03/03 07:23:43;;;;;;;53.55;31.70;;;;;;;5.40;54.25;96578.03;5092190;28;20213;-69
2021/03/03 07:26:12;;;;;;;59.92;33.42;;;;;;;5.14;54.75;96587.13;5091790;28;20217;-68
2021/03/03 07:28:39;;;;;;;61.55;34.35;;;;;;;5.11;56.26;96578.88;5092117;28;20268;-69
2021/03/03 07:31:10;;;;;;;58.85;32.45;;;;;;;5.56;54.98;96572.63;5091263;28;20199;-68
2021/03/03 07:33:37;;;;;;;63.65;35.60;;;;;;;5.42;55.17;96571.66;5090099;28;20215;-66
2021/03/03 07:36:06;;;;;;;61.45;33.85;;;;;;;5.51;55.76;96573.16;5091565;28;20213;-68
2021/03/03 07:38:36;;;;;;;60.97;33.10;;;;;;;6.05;56.66;96569.16;5092253;28;20526;-71
2021/03/03 07:41:05;;;;;;;56.85;32.83;;;;;;;6.44;56.88;96568.66;5091586;28;20191;-70
2021/03/03 07:43:32;;;;;;;61.22;33.63;;;;;;;6.47;53.92;96557.91;5092048;28;20749;-70
2021/03/03 07:46:06;;;;;;;54.45;32.78;;;;;;;6.36;54.42;96555.81;5090856;28;20201;-71
2021/03/03 07:48:34;;;;;;;55.13;32.50;;;;;;;6.43;53.44;96554.06;5091728;28;20199;-72
2021/03/03 07:51:02;;;;;;;59.73;32.37;;;;;;;6.62;53.55;96556.00;5101655;28;20959;-68
2021/03/03 07:53:30;;;;;;;53.47;31.15;;;;;;;6.86;51.74;96550.31;5110220;28;20850;-70
2021/03/03 07:55:58;;;;;;;59.08;34.30;;;;;;;7.55;52.52;96552.84;5110097;28;20186;-70
2021/03/03 07:58:28;;;;;;;57.60;33.00;;;;;;;7.18;52.54;96557.53;5110383;28;20225;-76
2021/03/03 08:00:55;;;;;;;95.10;53.70;;;;;;;7.62;51.43;96551.06;5110006;28;20440;-68
2021/03/03 08:03:44;;;;;;;56.60;33.85;;;;;;;7.94;51.27;96548.53;5108900;28;20949;-69
2021/03/03 08:06:20;;;;;;;54.87;32.37;;;;;;;8.16;50.10;96547.34;5109558;28;20218;-69
2021/03/03 08:09:04;;;;;;;46.70;27.57;;;;;;;7.91;50.18;96545.50;5108779;28;20435;-72
2021/03/03 08:11:44;;;;;;;47.03;27.77;;;;;;;8.13;50.59;96544.34;5110420;28;20431;-76
2021/03/03 08:14:32;;;;;;;45.40;28.33;;;;;;;8.32;50.85;96525.28;5122734;28;20468;-73
2021/03/03 08:17:01;;;;;;;47.20;27.63;;;;;;;8.20;50.44;96548.56;5106418;28;20444;-75
2021/03/03 08:19:49;;;;;;;57.80;32.33;;;;;;;8.60;49.58;96533.72;5108976;28;20449;-72
2021/03/03 08:22:15;;;;;;;49.77;28.17;;;;;;;8.78;49.14;96536.50;5107900;28;20452;-70
2021/03/03 08:24:43;;;;;;;38.80;24.67;;;;;;;8.84;49.55;96529.66;5106077;28;20463;-72
2021/03/03 08:27:34;;;;;;;52.30;24.60;;;;;;;8.81;49.56;96536.06;5110382;28;20441;-71
2021/03/03 08:30:14;;;;;;;39.13;24.67;;;;;;;8.91;50.24;96535.66;5109207;28;20441;-74
2021/03/03 08:32:41;;;;;;;39.07;22.40;;;;;;;9.05;49.84;96537.25;5110066;28;20443;-75
2021/03/03 08:35:10;;;;;;;39.23;23.17;;;;;;;9.53;48.45;96521.94;5109578;28;20534;-73
2021/03/03 08:37:38;;;;;;;35.50;22.37;;;;;;;9.83;48.33;96530.88;5109715;28;20448;-73
2021/03/03 08:40:27;;;;;;;35.13;21.47;;;;;;;9.82;46.09;96526.63;5107752;28;20503;-72
2021/03/03 08:42:53;;;;;;;35.90;22.97;;;;;;;9.87;47.04;96511.09;5110912;28;20431;-74
2021/03/03 08:45:27;;;;;;;34.47;22.73;;;;;;;10.18;46.52;96525.00;5109802;28;20468;-72
2021/03/03 08:47:56;;;;;;;37.33;23.17;;;;;;;9.93;46.83;96518.09;5110724;28;20818;-74
2021/03/03 08:50:35;;;;;;;39.50;24.13;;;;;;;10.09;46.69;96494.06;5105634;28;20513;-73
2021/03/03 08:53:25;;;;;;;43.50;22.97;;;;;;;10.21;46.94;96502.81;5098655;28;20451;-70
2021/03/03 08:55:54;;;;;;;35.00;21.87;;;;;;;10.19;46.35;96510.09;5106086;28;20537;-74
2021/03/03 08:58:32;;;;;;;37.97;21.47;;;;;;;10.24;45.59;96502.38;5109254;28;20436;-71
2021/03/03 09:00:59;;;;;;;37.87;21.10;;;;;;;9.91;45.99;96512.25;5100184;28;20548;-73
2021/03/03 09:03:26;;;;;;;31.80;20.23;;;;;;;10.27;45.71;96501.97;5104929;28;20490;-72
2021/03/03 09:05:55;;;;;;;32.37;19.57;;;;;;;10.44;44.16;96497.78;5103547;28;20483;-78
2021/03/03 09:08:22;;;;;;;35.83;24.87;;;;;;;10.53;45.51;96488.63;5104848;28;20468;-75
2021/03/03 09:10:50;;;;;;;69.57;48.90;;;;;;;11.05;45.52;96498.59;5101803;28;20459;-76
2021/03/03 09:13:23;;;;;;;31.47;20.30;;;;;;;11.29;44.14;96496.91;5102874;28;20455;-73
2021/03/03 09:16:06;;;;;;;31.07;19.10;;;;;;;11.09;43.90;96486.59;5106314;28;21044;-75
2021/03/03 09:18:37;;;;;;;29.83;19.87;;;;;;;11.05;43.34;96500.41;5108958;28;20505;-74
2021/03/03 09:21:08;;;;;;;28.17;19.03;;;;;;;11.42;42.00;96490.69;5105907;28;20444;-72
2021/03/03 09:23:36;;;;;;;27.07;17.00;;;;;;;11.29;41.51;96475.91;5110819;28;20448;-72
2021/03/03 09:26:16;;;;;;;26.13;16.67;;;;;;;11.38;42.15;96494.75;5109534;28;20517;-73
2021/03/03 09:28:42;;;;;;;29.70;17.40;;;;;;;11.81;41.38;96498.03;5109578;28;20861;-74
2021/03/03 09:31:09;;;;;;;33.23;17.77;;;;;;;11.39;41.06;96485.84;5088204;28;20467;-73
2021/03/03 09:33:35;;;;;;;25.73;17.83;;;;;;;11.79;42.26;96484.31;5089682;28;20444;-74
2021/03/03 09:36:11;;;;;;;28.03;17.43;;;;;;;12.19;40.07;96482.69;5089216;28;20436;-74
2021/03/03 09:38:37;;;;;;;23.97;16.17;;;;;;;12.12;39.79;96479.38;5088157;28;20433;-73
2021/03/03 09:41:10;;;;;;;237.57;157.97;;;;;;;12.02;40.75;96481.78;5088557;28;20743;-75
2021/03/03 09:43:38;;;;;;;82.87;64.73;;;;;;;11.81;39.97;96464.69;5087579;28;20974;-75
2021/03/03 09:46:04;;;;;;;62.17;37.60;;;;;;;11.44;40.55;96472.88;5087712;28;20945;-73
2021/03/03 09:48:31;;;;;;;47.00;30.57;;;;;;;11.52;40.80;96469.94;5091520;28;20834;-72
2021/03/03 09:50:58;;;;;;;204.13;151.87;;;;;;;11.95;41.89;96471.34;5099612;28;20441;-74
2021/03/03 09:53:25;;;;;;;168.50;112.00;;;;;;;12.09;41.22;96446.50;5110935;28;20440;-74
2021/03/03 09:55:51;;;;;;;132.03;90.60;;;;;;;12.52;38.96;96455.91;5109414;28;20488;-72
2021/03/03 09:58:17;;;;;;;37.07;24.37;;;;;;;12.59;40.12;96453.94;5093072;28;20445;-72
2021/03/03 10:00:44;;;;;;;33.07;20.47;;;;;;;12.51;39.59;96455.09;5099158;28;20444;-72
2021/03/03 10:03:13;;;;;;;25.23;15.77;;;;;;;13.23;39.01;96447.69;5110144;28;20531;-74
2021/03/03 10:05:41;;;;;;;25.30;16.50;;;;;;;13.85;36.72;96442.22;5108878;28;21182;-67
2021/03/03 10:08:10;;;;;;;26.83;16.63;;;;;;;13.77;37.53;96423.38;5110930;28;21012;-70
2021/03/03 10:10:39;;;;;;;25.77;16.73;;;;;;;13.71;37.45;96419.88;5113844;28;20451;-72
2021/03/03 10:13:06;;;;;;;87.90;70.93;;;;;;;13.65;37.53;96435.84;5113992;28;20447;-70
2021/03/03 10:15:34;;;;;;;297.57;216.70;;;;;;;13.76;36.92;96427.84;5108273;28;20680;-73
2021/03/03 10:18:06;;;;;;;168.47;117.20;;;;;;;14.01;36.50;96427.47;5113865;28;20878;-72
2021/03/03 10:20:50;;;;;;;154.30;109.50;;;;;;;13.96;36.03;96422.91;5113077;28;20451;-69
2021/03/03 10:23:18;;;;;;;22.30;15.60;;;;;;;13.37;37.45;96412.94;5094816;28;20461;-73
2021/03/03 10:25:51;;;;;;;25.80;15.57;;;;;;;14.06;36.37;96411.75;5098953;28;20474;-68
2021/03/03 10:28:22;;;;;;;22.97;16.23;;;;;;;13.93;36.63;96406.78;5113406;28;20440;-67
2021/03/03 10:30:50;;;;;;;20.30;13.83;;;;;;;13.54;36.51;96399.81;5112240;28;20585;-69
2021/03/03 10:33:38;;;;;;;22.40;14.57;;;;;;;14.05;35.29;96389.84;5112973;28;20451;-70
2021/03/03 10:36:14;;;;;;;24.37;14.80;;;;;;;14.03;34.19;96394.56;5111648;28;20435;-69
2021/03/03 10:38:48;;;;;;;21.77;14.93;;;;;;;14.08;33.85;96391.22;5113184;28;20436;-70
2021/03/03 10:41:24;;;;;;;22.50;14.53;;;;;;;13.89;35.33;96379.31;5112328;28;20523;-68
2021/03/03 10:43:51;;;;;;;19.90;14.10;;;;;;;14.46;35.50;96378.09;5105321;27;20451;-69
2021/03/03 10:46:20;;;;;;;23.30;14.50;;;;;;;14.92;33.36;96369.72;5111414;28;20851;-68
2021/03/03 10:48:50;;;;;;;22.77;13.97;;;;;;;14.73;33.62;96362.34;5112327;28;20945;-68
2021/03/03 10:51:19;;;;;;;26.00;15.10;;;;;;;14.70;33.79;96366.28;5112003;28;20446;-69
2021/03/03 10:53:59;;;;;;;23.70;15.20;;;;;;;14.78;34.24;96350.00;5113022;28;20421;-66
2021/03/03 10:56:28;;;;;;;23.17;15.50;;;;;;;14.59;34.57;96348.72;5100609;28;20566;-67
2021/03/03 10:59:03;;;;;;;21.30;13.83;;;;;;;15.10;32.81;96340.34;5110665;28;20451;-70
2021/03/03 11:01:41;;;;;;;20.83;13.77;;;;;;;15.10;32.77;96340.34;5101623;28;20542;-70
2021/03/03 11:04:08;;;;;;;24.60;13.80;;;;;;;14.89;32.24;96330.59;5105386;28;20842;-70
2021/03/03 11:06:36;;;;;;;21.83;13.90;;;;;;;14.65;33.04;96337.16;5112777;28;20435;-70
2021/03/03 11:09:20;;;;;;;20.53;12.27;;;;;;;15.18;32.25;96312.72;5111431;28;21042;-68
2021/03/03 11:11:55;;;;;;;20.33;12.17;;;;;;;15.17;31.68;96309.25;5111084;28;20451;-68
2021/03/03 11:14:22;;;;;;;18.87;11.70;;;;;;;14.64;30.55;96319.75;5097146;28;20491;-68
2021/03/03 11:16:53;;;;;;;17.30;11.17;;;;;;;14.65;30.56;96310.78;5092061;28;20517;-69
2021/03/03 11:19:20;;;;;;;21.37;11.93;;;;;;;14.68;30.45;96310.31;5089307;28;21005;-68
2021/03/03 11:21:47;;;;;;;15.80;11.47;;;;;;;15.18;30.33;96305.56;5089965;28;20548;-67
2021/03/03 11:24:13;;;;;;;23.50;10.50;;;;;;;15.17;30.86;96298.69;5089687;28;20528;-65
2021/03/03 11:26:44;;;;;;;18.40;10.70;;;;;;;14.91;30.38;96310.03;5090463;28;20822;-67
2021/03/03 11:29:11;;;;;;;17.83;10.37;;;;;;;15.01;30.05;96302.25;5091454;28;20429;-71
2021/03/03 11:31:39;;;;;;;19.43;10.70;;;;;;;15.30;30.95;96297.50;5091703;28;20437;-68
2021/03/03 11:34:07;;;;;;;18.07;10.87;;;;;;;15.25;30.19;96298.22;5091634;28;20473;-70